createdAt,value
2019-05-26T00:01:20.978Z,98232.81
2019-05-26T00:03:53.793Z,98235.65
2019-05-26T00:06:26.430Z,98230.83
2019-05-26T00:08:58.757Z,98228.84
2019-05-26T00:11:31.407Z,98237.02
2019-05-26T00:14:03.740Z,98228.52
2019-05-26T00:16:36.456Z,98228.69
2019-05-26T00:19:09.508Z,98227.70
2019-05-26T00:21:40.387Z,98221.67
2019-05-26T00:24:12.456Z,98213.33
2019-05-26T00:26:45.088Z,98217.52
2019-05-26T00:29:18.086Z,98224.38
2019-05-26T00:31:50.856Z,98220.88
2019-05-26T00:34:22.317Z,98214.73
2019-05-26T00:36:54.017Z,98208.72
2019-05-26T00:39:26.384Z,98207.57
2019-05-26T00:41:58.585Z,98208.09
2019-05-26T00:44:31.583Z,98213.44
2019-05-26T00:47:04.581Z,98210.27
2019-05-26T00:49:36.354Z,98209.45
2019-05-26T00:52:09.829Z,98208.95
2019-05-26T00:54:42.915Z,98209.46
2019-05-26T00:57:14.989Z,98208.80
2019-05-26T00:59:47.802Z,98199.12
2019-05-26T01:02:19.577Z,98196.16
2019-05-26T01:04:52.306Z,98199.48
2019-05-26T01:07:24.389Z,98200.48
2019-05-26T01:09:56.531Z,98196.81
2019-05-26T01:12:29.211Z,98203.78
2019-05-26T01:15:01.680Z,98200.47
2019-05-26T01:17:34.406Z,98203.41
2019-05-26T01:20:07.177Z,98201.39
2019-05-26T01:22:39.915Z,98201.07
2019-05-26T01:25:12.455Z,98204.56
2019-05-26T01:27:44.527Z,98205.22
2019-05-26T01:30:20.048Z,98209.70
2019-05-26T01:32:53.105Z,98208.70
2019-05-26T01:35:25.788Z,98214.02
2019-05-26T01:37:57.966Z,98220.95
2019-05-26T01:40:43.238Z,98216.64
2019-05-26T01:43:15.603Z,98212.00
2019-05-26T01:45:48.033Z,98214.67
2019-05-26T01:48:21.187Z,98213.94
2019-05-26T01:50:54.447Z,98215.72
2019-05-26T01:53:26.973Z,98216.68
2019-05-26T01:55:59.529Z,98220.82
2019-05-26T01:58:31.895Z,98218.80
2019-05-26T02:01:04.028Z,98209.58
2019-05-26T02:03:37.126Z,98210.21
2019-05-26T02:06:09.474Z,98207.07
2019-05-26T02:08:41.551Z,98210.73
2019-05-26T02:11:14.230Z,98209.73
2019-05-26T02:13:46.564Z,98216.98
2019-05-26T02:16:19.290Z,98209.80
2019-05-26T02:18:51.734Z,98210.75
2019-05-26T02:21:24.543Z,98222.05
2019-05-26T02:23:57.235Z,98219.78
2019-05-26T02:26:30.108Z,98223.91
2019-05-26T02:29:02.789Z,98229.59
2019-05-26T02:31:35.732Z,98236.55
2019-05-26T02:34:07.899Z,98230.92
2019-05-26T02:36:39.975Z,98231.81
2019-05-26T02:39:12.684Z,98230.54
2019-05-26T02:41:44.935Z,98231.45
2019-05-26T02:44:16.800Z,98231.09
2019-05-26T02:46:49.802Z,98225.69
2019-05-26T02:49:21.958Z,98225.70
2019-05-26T02:51:54.463Z,98226.82
2019-05-26T02:54:26.993Z,98232.77
2019-05-26T02:56:59.172Z,98231.41
2019-05-26T02:59:31.730Z,98226.85
2019-05-26T03:02:04.944Z,98228.96
2019-05-26T03:04:38.040Z,98237.23
2019-05-26T03:07:12.778Z,98229.41
2019-05-26T03:09:48.837Z,98230.95
2019-05-26T03:12:25.186Z,98225.86
2019-05-26T03:15:01.472Z,98223.30
2019-05-26T03:17:37.461Z,98223.14
2019-05-26T03:20:10.837Z,98224.55
2019-05-26T03:22:46.183Z,98218.47
2019-05-26T03:25:18.418Z,98221.05
2019-05-26T03:27:50.876Z,98219.48
2019-05-26T03:30:23.441Z,98214.21
2019-05-26T03:32:56.144Z,98223.88
2019-05-26T03:35:29.242Z,98218.94
2019-05-26T03:38:01.041Z,98221.98
2019-05-26T03:40:33.807Z,98228.17
2019-05-26T03:43:06.202Z,98224.75
2019-05-26T03:46:18.451Z,98226.42
2019-05-26T03:48:52.057Z,98225.86
2019-05-26T03:51:24.412Z,98230.61
2019-05-26T03:53:57.367Z,98231.83
2019-05-26T03:56:30.091Z,98227.89
2019-05-26T03:59:02.557Z,98233.19
2019-05-26T04:01:34.999Z,98238.75
2019-05-26T04:04:07.510Z,98242.47
2019-05-26T04:06:40.394Z,98242.31
2019-05-26T04:09:13.381Z,98241.41
2019-05-26T04:11:45.685Z,98245.03
2019-05-26T04:14:18.024Z,98240.55
2019-05-26T04:16:50.034Z,98247.39
2019-05-26T04:19:23.031Z,98239.94
2019-05-26T04:21:55.338Z,98235.81
2019-05-26T04:24:27.338Z,98238.52
2019-05-26T04:26:59.936Z,98243.20
2019-05-26T04:29:32.278Z,98240.78
2019-05-26T04:32:04.420Z,98236.27
2019-05-26T04:34:37.176Z,98241.93
2019-05-26T04:37:09.995Z,98242.95
2019-05-26T04:39:42.146Z,98242.80
2019-05-26T04:42:14.018Z,98242.44
2019-05-26T04:44:46.672Z,98240.30
2019-05-26T04:47:19.375Z,98246.63
2019-05-26T04:49:51.993Z,98250.95
2019-05-26T04:52:24.077Z,98249.69
2019-05-26T04:54:56.597Z,98251.77
2019-05-26T04:57:29.390Z,98252.94
2019-05-26T05:00:01.111Z,98257.19
2019-05-26T05:02:33.422Z,98252.36
2019-05-26T05:05:06.278Z,98258.03
2019-05-26T05:07:38.416Z,98258.69
2019-05-26T05:10:11.362Z,98256.27
2019-05-26T05:12:44.000Z,98261.86
2019-05-26T05:15:16.886Z,98265.55
2019-05-26T05:17:49.323Z,98262.93
2019-05-26T05:20:22.503Z,98269.95
2019-05-26T05:22:53.604Z,98264.47
2019-05-26T05:25:25.656Z,98268.14
2019-05-26T05:27:58.550Z,98265.38
2019-05-26T05:30:30.684Z,98262.58
2019-05-26T05:33:03.185Z,98264.22
2019-05-26T05:35:35.624Z,98259.08
2019-05-26T05:38:08.085Z,98260.08
2019-05-26T05:40:40.452Z,98259.58
2019-05-26T05:43:12.923Z,98261.06
2019-05-26T05:45:45.013Z,98251.53
2019-05-26T05:48:17.689Z,98257.15
2019-05-26T05:50:49.881Z,98252.30
2019-05-26T05:53:22.237Z,98260.61
2019-05-26T05:55:54.983Z,98255.95
2019-05-26T05:58:27.989Z,98255.70
2019-05-26T06:01:00.431Z,98260.50
2019-05-26T06:03:32.543Z,98264.73
2019-05-26T06:06:05.859Z,98261.69
2019-05-26T06:08:36.925Z,98261.88
2019-05-26T06:11:16.554Z,98259.31
2019-05-26T06:13:43.131Z,98260.25
2019-05-26T06:16:16.105Z,98259.66
2019-05-26T06:18:48.164Z,98257.77
2019-05-26T06:21:20.935Z,98253.45
2019-05-26T06:23:53.991Z,98251.94
2019-05-26T06:26:25.160Z,98248.66
2019-05-26T06:28:57.507Z,98248.81
2019-05-26T06:31:29.595Z,98250.33
2019-05-26T06:34:01.652Z,98250.42
2019-05-26T06:36:34.034Z,98248.13
2019-05-26T06:39:10.240Z,98248.82
2019-05-26T06:41:42.641Z,98252.97
2019-05-26T06:44:14.712Z,98252.81
2019-05-26T06:46:47.049Z,98258.09
2019-05-26T06:49:19.893Z,98258.80
2019-05-26T06:51:53.141Z,98260.04
2019-05-26T06:54:25.732Z,98256.98
2019-05-26T06:56:58.705Z,98267.17
2019-05-26T06:59:31.118Z,98256.30
2019-05-26T07:02:03.580Z,98259.56
2019-05-26T07:04:36.746Z,98258.28
2019-05-26T07:07:09.237Z,98251.68
2019-05-26T07:09:41.955Z,98259.50
2019-05-26T07:12:14.481Z,98252.48
2019-05-26T07:14:45.447Z,98259.47
2019-05-26T07:17:20.555Z,98257.95
2019-05-26T07:19:51.251Z,98260.84
2019-05-26T07:22:23.403Z,98265.72
2019-05-26T07:24:56.360Z,98256.97
2019-05-26T07:27:28.833Z,98258.02
2019-05-26T07:30:00.928Z,98260.38
2019-05-26T07:32:34.142Z,98252.99
2019-05-26T07:35:07.298Z,98251.25
2019-05-26T07:37:39.391Z,98251.12
2019-05-26T07:40:12.221Z,98263.42
2019-05-26T07:42:44.298Z,98255.75
2019-05-26T07:45:17.507Z,98260.93
2019-05-26T07:47:49.662Z,98253.02
2019-05-26T07:50:22.458Z,98249.48
2019-05-26T07:52:54.878Z,98250.50
2019-05-26T07:55:25.952Z,98248.75
2019-05-26T07:57:58.229Z,98257.34
2019-05-26T08:00:30.557Z,98247.55
2019-05-26T08:03:02.091Z,98243.80
2019-05-26T08:05:34.068Z,98247.95
2019-05-26T08:08:12.643Z,98248.17
2019-05-26T08:10:41.167Z,98249.01
2019-05-26T08:13:13.907Z,98240.03
2019-05-26T08:15:46.352Z,98239.28
2019-05-26T08:18:19.006Z,98235.30
2019-05-26T08:20:51.754Z,98241.77
2019-05-26T08:23:23.821Z,98240.98
2019-05-26T08:25:56.659Z,98239.70
2019-05-26T08:28:28.471Z,98235.88
2019-05-26T08:31:01.083Z,98234.09
2019-05-26T08:33:32.557Z,98229.38
2019-05-26T08:36:05.278Z,98231.56
2019-05-26T08:38:37.873Z,98225.83
2019-05-26T08:41:10.869Z,98229.20
2019-05-26T08:43:44.264Z,98226.45
2019-05-26T08:46:17.453Z,98215.79
2019-05-26T08:48:50.274Z,98221.95
2019-05-26T08:51:22.786Z,98224.37
2019-05-26T08:53:53.942Z,98218.34
2019-05-26T08:56:26.117Z,98211.08
2019-05-26T08:58:57.924Z,98211.63
2019-05-26T09:01:31.290Z,98215.08
2019-05-26T09:04:03.349Z,98207.66
2019-05-26T09:06:37.215Z,98207.67
2019-05-26T09:09:08.444Z,98198.02
2019-05-26T09:11:40.863Z,98202.48
2019-05-26T09:14:13.225Z,98213.36
2019-05-26T09:16:45.698Z,98211.44
2019-05-26T09:19:17.419Z,98202.98
2019-05-26T09:21:50.450Z,98206.70
2019-05-26T09:24:22.770Z,98200.94
2019-05-26T09:26:55.089Z,98197.09
2019-05-26T09:29:27.183Z,98202.38
2019-05-26T09:31:57.970Z,98202.84
2019-05-26T09:34:30.284Z,98198.78
2019-05-26T09:37:02.996Z,98196.08
2019-05-26T09:39:35.062Z,98191.70
2019-05-26T09:42:06.460Z,98192.02
2019-05-26T09:44:38.718Z,98200.80
2019-05-26T09:47:10.436Z,98195.13
2019-05-26T09:49:43.063Z,98194.19
2019-05-26T09:52:15.089Z,98193.86
2019-05-26T09:54:45.862Z,98188.75
2019-05-26T09:57:18.868Z,98190.12
2019-05-26T09:59:51.211Z,98184.19
2019-05-26T10:02:23.329Z,98181.70
2019-05-26T10:04:55.911Z,98178.33
2019-05-26T10:07:27.630Z,98179.52
2019-05-26T10:09:59.946Z,98173.48
2019-05-26T10:12:33.006Z,98177.31
2019-05-26T10:15:05.787Z,98174.73
2019-05-26T10:17:38.186Z,98177.45
2019-05-26T10:20:11.658Z,98173.39
2019-05-26T10:22:44.314Z,98168.88
2019-05-26T10:25:16.797Z,98178.22
2019-05-26T10:27:50.149Z,98167.14
2019-05-26T10:30:22.931Z,98160.65
2019-05-26T10:32:55.725Z,98159.52
2019-05-26T10:35:28.696Z,98168.54
2019-05-26T10:38:01.448Z,98155.54
2019-05-26T10:40:34.150Z,98164.02
2019-05-26T10:43:07.180Z,98155.64
2019-05-26T10:45:39.712Z,98154.16
2019-05-26T10:48:12.140Z,98151.38
2019-05-26T10:50:45.177Z,98156.92
2019-05-26T10:53:17.254Z,98145.47
2019-05-26T10:55:49.340Z,98144.23
2019-05-26T10:58:22.122Z,98143.41
2019-05-26T11:00:54.222Z,98133.89
2019-05-26T11:03:26.957Z,98136.97
2019-05-26T11:06:00.055Z,98134.98
2019-05-26T11:08:33.745Z,98130.30
2019-05-26T11:11:05.906Z,98137.72
2019-05-26T11:13:40.617Z,98130.22
2019-05-26T11:16:11.929Z,98126.78
2019-05-26T11:18:44.455Z,98127.67
2019-05-26T11:21:16.444Z,98129.88
2019-05-26T11:23:48.507Z,98131.79
2019-05-26T11:26:20.709Z,98123.56
2019-05-26T11:28:53.841Z,98119.86
2019-05-26T11:31:26.934Z,98112.03
2019-05-26T11:33:59.423Z,98119.72
2019-05-26T11:36:31.206Z,98107.44
2019-05-26T11:39:03.168Z,98108.11
2019-05-26T11:41:35.850Z,98107.58
2019-05-26T11:44:17.580Z,98094.45
2019-05-26T11:46:42.339Z,98099.69
2019-05-26T11:49:14.615Z,98094.72
2019-05-26T11:51:47.114Z,98098.55
2019-05-26T11:54:20.014Z,98093.22
2019-05-26T11:56:52.387Z,98094.34
2019-05-26T11:59:24.183Z,98089.49
2019-05-26T12:01:56.365Z,98095.73
2019-05-26T12:04:29.773Z,98090.92
2019-05-26T12:07:04.478Z,98089.80
2019-05-26T12:09:36.955Z,98081.57
2019-05-26T12:12:09.124Z,98073.54
2019-05-26T12:14:41.063Z,98072.35
2019-05-26T12:17:13.434Z,98063.42
2019-05-26T12:19:45.498Z,98062.38
2019-05-26T12:22:17.567Z,98064.44
2019-05-26T12:24:49.294Z,98056.84
2019-05-26T12:27:21.438Z,98062.34
2019-05-26T12:29:52.667Z,98052.71
2019-05-26T12:32:24.375Z,98045.68
2019-05-26T12:34:55.165Z,98049.70
2019-05-26T12:37:27.542Z,98047.02
2019-05-26T12:40:00.424Z,98046.76
2019-05-26T12:42:33.402Z,98048.80
2019-05-26T12:45:08.735Z,98046.45
2019-05-26T12:47:40.857Z,98046.34
2019-05-26T12:50:14.202Z,98046.95
2019-05-26T12:52:46.721Z,98040.91
2019-05-26T12:55:19.501Z,98040.64
2019-05-26T12:57:51.902Z,98044.81
2019-05-26T13:00:25.568Z,98046.55
2019-05-26T13:02:57.797Z,98036.91
2019-05-26T13:05:30.386Z,98022.72
2019-05-26T13:08:02.760Z,98022.65
2019-05-26T13:10:35.452Z,98030.12
2019-05-26T13:13:08.147Z,98013.69
2019-05-26T13:15:40.819Z,98020.67
2019-05-26T13:18:13.503Z,98025.53
2019-05-26T13:20:46.823Z,98013.63
2019-05-26T13:23:19.777Z,98006.58
2019-05-26T13:25:53.156Z,98001.58
2019-05-26T13:28:26.048Z,97999.05
2019-05-26T13:30:58.578Z,98007.94
2019-05-26T13:33:31.009Z,97998.09
2019-05-26T13:36:03.794Z,98001.86
2019-05-26T13:38:36.435Z,97999.20
2019-05-26T13:41:08.751Z,97988.75
2019-05-26T13:43:41.414Z,97983.83
2019-05-26T13:46:14.713Z,97988.55
2019-05-26T13:48:47.381Z,97986.66
2019-05-26T13:51:20.161Z,97995.84
2019-05-26T13:53:52.638Z,97991.70
2019-05-26T13:56:25.017Z,97982.80
2019-05-26T13:58:57.212Z,97988.23
2019-05-26T14:01:29.876Z,97990.39
2019-05-26T14:04:02.124Z,97992.72
2019-05-26T14:06:34.707Z,97993.78
2019-05-26T14:09:10.576Z,97991.76
2019-05-26T14:11:42.672Z,97984.70
2019-05-26T14:14:14.947Z,97989.63
2019-05-26T14:16:49.316Z,97979.69
2019-05-26T14:19:23.195Z,97980.36
2019-05-26T14:21:55.489Z,97977.21
2019-05-26T14:24:27.661Z,97978.71
2019-05-26T14:27:00.129Z,97976.34
2019-05-26T14:29:32.702Z,97975.08
2019-05-26T14:32:05.121Z,97981.18
2019-05-26T14:34:37.502Z,97974.67
2019-05-26T14:37:10.343Z,97968.22
2019-05-26T14:39:42.398Z,97968.00
2019-05-26T14:42:14.604Z,97966.78
2019-05-26T14:44:46.969Z,97965.19
2019-05-26T14:47:18.923Z,97959.58
2019-05-26T14:49:51.279Z,97967.72
2019-05-26T14:52:23.171Z,97961.30
2019-05-26T14:54:54.523Z,97952.56
2019-05-26T14:57:26.495Z,97954.66
2019-05-26T14:59:57.269Z,97956.58
2019-05-26T15:02:30.079Z,97955.48
2019-05-26T15:05:02.215Z,97954.92
2019-05-26T15:07:34.738Z,97946.58
2019-05-26T15:10:07.234Z,97960.86
2019-05-26T15:12:40.275Z,97953.53
2019-05-26T15:15:12.694Z,97952.77
2019-05-26T15:17:45.159Z,97950.37
2019-05-26T15:20:17.373Z,97945.95
2019-05-26T15:22:49.269Z,97942.01
2019-05-26T15:25:21.411Z,97936.10
2019-05-26T15:27:53.941Z,97941.78
2019-05-26T15:30:25.759Z,97939.72
2019-05-26T15:32:56.915Z,97934.95
2019-05-26T15:35:29.192Z,97929.87
2019-05-26T15:38:02.081Z,97937.19
2019-05-26T15:40:34.469Z,97940.22
2019-05-26T15:43:07.011Z,97934.13
2019-05-26T15:45:39.076Z,97937.52
2019-05-26T15:48:12.374Z,97931.37
2019-05-26T15:50:45.456Z,97933.40
2019-05-26T15:53:18.201Z,97922.63
2019-05-26T15:55:50.711Z,97932.66
2019-05-26T15:58:23.014Z,97936.98
2019-05-26T16:00:56.143Z,97928.98
2019-05-26T16:03:28.589Z,97936.44
2019-05-26T16:06:01.018Z,97918.39
2019-05-26T16:08:33.455Z,97912.09
2019-05-26T16:11:05.928Z,97921.84
2019-05-26T16:13:38.981Z,97915.33
2019-05-26T16:16:12.007Z,97921.30
2019-05-26T16:18:45.571Z,97910.86
2019-05-26T16:21:27.646Z,97908.67
2019-05-26T16:23:51.458Z,97905.77
2019-05-26T16:26:22.832Z,97908.05
2019-05-26T16:28:55.209Z,97906.89
2019-05-26T16:31:29.149Z,97910.09
2019-05-26T16:34:02.156Z,97906.60
2019-05-26T16:36:34.935Z,97907.00
2019-05-26T16:39:09.498Z,97905.45
2019-05-26T16:41:41.735Z,97911.98
2019-05-26T16:44:13.808Z,97906.50
2019-05-26T16:46:55.946Z,97915.05
2019-05-26T16:49:21.268Z,97906.73
2019-05-26T16:51:54.182Z,97910.45
2019-05-26T16:54:26.239Z,97905.22
2019-05-26T16:56:58.640Z,97907.39
2019-05-26T16:59:30.949Z,97905.47
2019-05-26T17:02:03.602Z,97909.73
2019-05-26T17:04:36.399Z,97908.95
2019-05-26T17:07:08.188Z,97900.88
2019-05-26T17:09:39.597Z,97902.18
2019-05-26T17:12:11.955Z,97908.64
2019-05-26T17:14:44.647Z,97905.74
2019-05-26T17:17:16.722Z,97901.92
2019-05-26T17:19:52.593Z,97914.78
2019-05-26T17:22:23.294Z,97921.02
2019-05-26T17:24:59.843Z,97918.47
2019-05-26T17:27:31.393Z,97925.40
2019-05-26T17:30:03.670Z,97922.13
2019-05-26T17:32:34.716Z,97921.98
2019-05-26T17:35:06.858Z,97915.41
2019-05-26T17:37:39.265Z,97916.43
2019-05-26T17:40:10.684Z,97916.62
2019-05-26T17:42:42.730Z,97914.16
2019-05-26T17:45:15.079Z,97914.55
2019-05-26T17:47:48.058Z,97906.41
2019-05-26T17:50:20.246Z,97900.58
2019-05-26T17:52:51.023Z,97902.73
2019-05-26T17:55:24.131Z,97905.37
2019-05-26T17:57:56.897Z,97903.69
2019-05-26T18:00:29.347Z,97906.94
2019-05-26T18:03:02.009Z,97901.31
2019-05-26T18:05:34.982Z,97902.88
2019-05-26T18:08:07.779Z,97902.00
2019-05-26T18:10:40.194Z,97902.88
2019-05-26T18:13:13.803Z,97896.56
2019-05-26T18:15:47.635Z,97895.51
2019-05-26T18:18:20.264Z,97898.42
2019-05-26T18:20:52.669Z,97890.95
2019-05-26T18:23:24.788Z,97886.84
2019-05-26T18:25:57.616Z,97884.61
2019-05-26T18:28:31.162Z,97884.08
2019-05-26T18:31:03.822Z,97878.69
2019-05-26T18:33:35.262Z,97881.45
2019-05-26T18:36:07.302Z,97880.05
2019-05-26T18:38:40.914Z,97886.23
2019-05-26T18:41:16.738Z,97886.76
2019-05-26T18:43:48.815Z,97881.85
2019-05-26T18:46:21.298Z,97881.83
2019-05-26T18:48:53.755Z,97879.84
2019-05-26T18:51:28.324Z,97882.02
2019-05-26T18:54:03.827Z,97884.39
2019-05-26T18:56:39.589Z,97885.97
2019-05-26T18:59:12.574Z,97880.80
2019-05-26T19:01:44.637Z,97882.27
2019-05-26T19:04:17.031Z,97878.09
2019-05-26T19:06:49.682Z,97882.03
2019-05-26T19:09:21.575Z,97884.52
2019-05-26T19:11:54.883Z,97887.12
2019-05-26T19:14:30.873Z,97887.02
2019-05-26T19:17:02.659Z,97875.84
2019-05-26T19:19:36.071Z,97884.97
2019-05-26T19:22:10.485Z,97880.33
2019-05-26T19:24:43.204Z,97886.94
2019-05-26T19:27:15.081Z,97888.04
2019-05-26T19:29:47.814Z,97887.48
2019-05-26T19:32:20.491Z,97889.59
2019-05-26T19:34:54.762Z,97892.99
2019-05-26T19:37:27.868Z,97892.83
2019-05-26T19:40:00.689Z,97892.23
2019-05-26T19:42:31.737Z,97898.98
2019-05-26T19:45:04.070Z,97890.12
2019-05-26T19:47:36.812Z,97889.17
2019-05-26T19:50:10.227Z,97897.45
2019-05-26T19:52:42.790Z,97897.87
2019-05-26T19:55:15.786Z,97901.96
2019-05-26T19:57:48.414Z,97897.22
2019-05-26T20:00:21.884Z,97905.97
2019-05-26T20:02:54.781Z,97905.97
2019-05-26T20:05:45.297Z,97905.16
2019-05-26T20:08:19.280Z,97905.56
2019-05-26T20:10:51.659Z,97904.48
2019-05-26T20:13:24.276Z,97910.50
2019-05-26T20:15:57.658Z,97905.13
2019-05-26T20:18:30.465Z,97901.77
2019-05-26T20:21:03.125Z,97905.89
2019-05-26T20:23:34.680Z,97905.66
2019-05-26T20:26:06.404Z,97910.98
2019-05-26T20:28:39.378Z,97910.42
2019-05-26T20:31:12.116Z,97909.17
2019-05-26T20:33:44.880Z,97912.74
2019-05-26T20:36:17.533Z,97908.89
2019-05-26T20:38:51.180Z,97906.96
2019-05-26T20:41:23.884Z,97904.23
2019-05-26T20:43:56.748Z,97904.47
2019-05-26T20:46:28.934Z,97899.13
2019-05-26T20:49:01.727Z,97903.63
2019-05-26T20:51:34.419Z,97898.86
2019-05-26T20:54:05.519Z,97895.38
2019-05-26T20:56:39.101Z,97896.89
2019-05-26T20:59:12.248Z,97903.19
2019-05-26T21:01:44.551Z,97890.96
2019-05-26T21:04:17.238Z,97893.20
2019-05-26T21:06:50.086Z,97893.00
2019-05-26T21:09:25.363Z,97889.05
2019-05-26T21:11:58.329Z,97889.94
2019-05-26T21:14:30.850Z,97895.94
2019-05-26T21:17:04.091Z,97899.67
2019-05-26T21:19:37.069Z,97900.45
2019-05-26T21:22:09.378Z,97894.67
2019-05-26T21:24:42.460Z,97888.27
2019-05-26T21:27:15.580Z,97891.59
2019-05-26T21:29:47.670Z,97893.55
2019-05-26T21:32:20.766Z,97891.84
2019-05-26T21:34:54.309Z,97887.73
2019-05-26T21:37:28.002Z,97886.28
2019-05-26T21:40:00.355Z,97889.27
2019-05-26T21:42:33.789Z,97891.95
2019-05-26T21:45:07.092Z,97886.27
2019-05-26T21:47:37.945Z,97893.54
2019-05-26T21:50:11.043Z,97890.98
2019-05-26T21:52:45.797Z,97889.65
2019-05-26T21:55:18.478Z,97892.71
2019-05-26T21:57:50.797Z,97889.78
2019-05-26T22:00:29.089Z,97882.33
2019-05-26T22:03:02.032Z,97882.14
2019-05-26T22:05:35.466Z,97885.66
2019-05-26T22:08:08.469Z,97889.55
2019-05-26T22:10:41.771Z,97886.92
2019-05-26T22:13:15.521Z,97884.57
2019-05-26T22:15:47.895Z,97888.91
2019-05-26T22:18:20.760Z,97886.39
2019-05-26T22:20:53.124Z,97884.72
2019-05-26T22:23:25.825Z,97882.27
2019-05-26T22:25:58.044Z,97882.41
2019-05-26T22:28:29.872Z,97883.29
2019-05-26T22:31:02.597Z,97885.95
2019-05-26T22:33:35.391Z,97884.13
2019-05-26T22:36:07.470Z,97880.89
2019-05-26T22:38:40.423Z,97884.27
2019-05-26T22:41:13.047Z,97884.52
2019-05-26T22:43:45.880Z,97883.20
2019-05-26T22:46:18.357Z,97873.52
2019-05-26T22:48:50.451Z,97872.16
2019-05-26T22:51:23.865Z,97873.46
2019-05-26T22:53:54.736Z,97877.11
2019-05-26T22:56:26.564Z,97875.78
2019-05-26T22:58:59.029Z,97878.31
2019-05-26T23:01:31.126Z,97878.36
2019-05-26T23:04:03.790Z,97875.73
2019-05-26T23:06:36.231Z,97875.78
2019-05-26T23:09:08.700Z,97873.11
2019-05-26T23:11:41.098Z,97871.56
2019-05-26T23:14:13.509Z,97870.19
2019-05-26T23:16:46.563Z,97868.76
2019-05-26T23:19:20.067Z,97864.45
2019-05-26T23:21:51.613Z,97861.03
2019-05-26T23:24:24.599Z,97859.38
2019-05-26T23:26:56.673Z,97859.20
2019-05-26T23:29:29.547Z,97863.34
2019-05-26T23:32:02.524Z,97852.76
2019-05-26T23:34:33.988Z,97853.64
2019-05-26T23:37:06.551Z,97846.88
2019-05-26T23:39:40.353Z,97851.55
2019-05-26T23:42:13.237Z,97843.86
2019-05-26T23:44:46.019Z,97839.72
2019-05-26T23:47:18.471Z,97840.96
2019-05-26T23:49:50.929Z,97842.48
2019-05-26T23:52:23.409Z,97838.64
2019-05-26T23:54:56.123Z,97841.48
2019-05-26T23:57:28.456Z,97835.36
